Time;durP1;ratioP1;P1;durP2;ratioP2;P2;SDS_P1;SDS_P2;PMS_P1;PMS_P2;Temp;Humidity;BMP_temperature;BMP_pressure;BME280_temperature;BME280_humidity;BME280_pressure;Samples;Min_cycle;Max_cycle;Signal;HPM_P1;HPM_P2
2022/06/25 00:00:32;;;;;;;;;;;;;;;;;;5118348;28;19956;-23
2022/06/25 00:02:58;;;;;;;;;;;;;;;;;;5117361;28;19920;-24
2022/06/25 00:05:27;;;;;;;;;;;;;;;;;;5117348;28;19908;-24
2022/06/25 00:07:53;;;;;;;;;;;;;;;;;;5117873;28;19912;-22
2022/06/25 00:10:19;;;;;;;;;;;;;;;;;;5117289;28;20354;-25
2022/06/25 00:12:45;;;;;;;;;;;;;;;;;;5117176;28;20296;-22
2022/06/25 00:15:11;;;;;;;;;;;;;;;;;;5117235;28;19912;-23
2022/06/25 00:17:37;;;;;;;;;;;;;;;;;;5117134;28;19911;-23
2022/06/25 00:20:03;;;;;;;;;;;;;;;;;;5117404;28;19907;-23
2022/06/25 00:22:29;;;;;;;;;;;;;;;;;;5117259;28;19912;-23
2022/06/25 00:24:55;;;;;;;;;;;;;;;;;;5117836;28;20011;-23
2022/06/25 00:27:21;;;;;;;;;;;;;;;;;;5117178;28;19967;-23
2022/06/25 00:29:47;;;;;;;;;;;;;;;;;;5116942;28;19999;-25
2022/06/25 00:32:13;;;;;;;;;;;;;;;;;;5117028;28;20284;-23
2022/06/25 00:34:39;;;;;;;;;;;;;;;;;;5117373;28;19937;-24
2022/06/25 00:37:05;;;;;;;;;;;;;;;;;;5116726;28;19919;-23
2022/06/25 00:39:31;;;;;;;;;;;;;;;;;;5116709;28;20335;-23
2022/06/25 00:41:57;;;;;;;;;;;;;;;;;;5116592;28;19918;-23
2022/06/25 00:44:23;;;;;;;;;;;;;;;;;;5116612;28;19908;-23
2022/06/25 00:46:49;;;;;;;;;;;;;;;;;;5116454;28;19919;-23
2022/06/25 00:49:15;;;;;;;;;;;;;;;;;;5117136;28;19946;-23
2022/06/25 00:51:41;;;;;;;;;;;;;;;;;;5116467;28;19926;-23
2022/06/25 00:54:07;;;;;;;;;;;;;;;;;;5116990;28;19922;-23
2022/06/25 00:56:33;;;;;;;;;;;;;;;;;;5116421;28;19912;-22
2022/06/25 00:58:59;;;;;;;;;;;;;;;;;;5116310;28;20330;-24
2022/06/25 01:01:25;;;;;;;;;;;;;;;;;;5116892;28;19994;-25
2022/06/25 01:03:51;;;;;;;;;;;;;;;;;;5116206;28;19947;-24
2022/06/25 01:06:17;;;;;;;;;;;;;;;;;;5115227;28;20380;-23
2022/06/25 01:08:43;;;;;;;;;;;;;;;;;;5116798;28;19908;-23
2022/06/25 01:11:11;;;;;;;;;;;;;;;;;;5116145;28;19977;-24
2022/06/25 01:13:37;;;;;;;;;;;;;;;;;;5116306;28;19919;-23
2022/06/25 01:16:03;;;;;;;;;;;;;;;;;;5115658;28;19912;-23
2022/06/25 01:18:29;;;;;;;;;;;;;;;;;;5116052;28;19908;-22
2022/06/25 01:20:55;;;;;;;;;;;;;;;;;;5116244;28;19912;-22
2022/06/25 01:23:21;;;;;;;;;;;;;;;;;;5115892;28;20341;-23
2022/06/25 01:25:47;;;;;;;;;;;;;;;;;;5116125;28;20006;-23
2022/06/25 01:28:13;;;;;;;;;;;;;;;;;;5116150;28;19912;-22
2022/06/25 01:30:39;;;;;;;;;;;;;;;;;;5115866;28;19961;-23
2022/06/25 01:33:05;;;;;;;;;;;;;;;;;;5115683;28;19946;-25
2022/06/25 01:35:31;;;;;;;;;;;;;;;;;;5115827;28;19912;-25
2022/06/25 01:37:57;;;;;;;;;;;;;;;;;;5115770;28;19919;-23
2022/06/25 01:40:23;;;;;;;;;;;;;;;;;;5115673;28;19908;-22
2022/06/25 01:42:58;;;;;;;;;;;;;;;;;;5116200;28;19912;-21
2022/06/25 01:45:24;;;;;;;;;;;;;;;;;;5116007;28;20312;-21
2022/06/25 01:47:50;;;;;;;;;;;;;;;;;;5115679;28;20002;-22
2022/06/25 01:50:16;;;;;;;;;;;;;;;;;;5115894;28;20012;-22
2022/06/25 01:52:46;;;;;;;;;;;;;;;;;;5115548;28;20346;-21
2022/06/25 01:55:12;;;;;;;;;;;;;;;;;;5115915;28;20262;-22
2022/06/25 01:57:38;;;;;;;;;;;;;;;;;;5115492;28;19919;-22
2022/06/25 02:00:04;;;;;;;;;;;;;;;;;;5115808;28;19908;-22
2022/06/25 02:02:30;;;;;;;;;;;;;;;;;;5115421;28;20010;-22
2022/06/25 02:04:56;;;;;;;;;;;;;;;;;;5115717;28;19966;-24
2022/06/25 02:07:22;;;;;;;;;;;;;;;;;;5115420;28;20362;-22
2022/06/25 02:09:48;;;;;;;;;;;;;;;;;;5115688;28;19912;-22
2022/06/25 02:12:14;;;;;;;;;;;;;;;;;;5115373;28;19994;-22
2022/06/25 02:14:40;;;;;;;;;;;;;;;;;;5115336;28;19912;-24
2022/06/25 02:17:06;;;;;;;;;;;;;;;;;;5115616;28;19972;-24
2022/06/25 02:19:32;;;;;;;;;;;;;;;;;;5115383;28;20395;-21
2022/06/25 02:21:58;;;;;;;;;;;;;;;;;;5115252;28;19912;-21
2022/06/25 02:24:24;;;;;;;;;;;;;;;;;;5115271;28;19966;-22
2022/06/25 02:26:50;;;;;;;;;;;;;;;;;;5115187;28;19954;-22
2022/06/25 02:29:16;;;;;;;;;;;;;;;;;;5117767;28;20003;-23
2022/06/25 02:31:42;;;;;;;;;;;;;;;;;;5119204;28;20000;-21
2022/06/25 02:34:08;;;;;;;;;;;;;;;;;;5119069;28;19912;-22
2022/06/25 02:36:34;;;;;;;;;;;;;;;;;;5119747;28;20021;-22
2022/06/25 02:39:00;;;;;;;;;;;;;;;;;;5119108;28;19923;-23
2022/06/25 02:41:26;;;;;;;;;;;;;;;;;;5119041;28;19968;-22
2022/06/25 02:43:52;;;;;;;;;;;;;;;;;;5118907;28;19912;-22
2022/06/25 02:46:18;;;;;;;;;;;;;;;;;;5118700;28;19919;-22
2022/06/25 02:48:44;;;;;;;;;;;;;;;;;;5119227;28;19912;-23
2022/06/25 02:51:10;;;;;;;;;;;;;;;;;;5118868;28;19919;-22
2022/06/25 02:53:36;;;;;;;;;;;;;;;;;;5118874;28;19912;-22
2022/06/25 02:58:56;;;;;;;;;;;;;;;;;;5119089;28;20319;-25
2022/06/25 03:01:22;;;;;;;;;;;;;;;;;;5118983;28;19912;-22
2022/06/25 03:03:48;;;;;;;;;;;;;;;;;;5118881;27;19964;-22
2022/06/25 03:06:14;;;;;;;;;;;;;;;;;;5118509;28;20280;-22
2022/06/25 03:08:40;;;;;;;;;;;;;;;;;;5118779;28;19912;-23
2022/06/25 03:11:06;;;;;;;;;;;;;;;;;;5118485;28;20045;-23
2022/06/25 03:13:34;;;;;;;;;;;;;;;;;;5119446;28;19912;-22
2022/06/25 03:16:00;;;;;;;;;;;;;;;;;;5118657;28;19911;-25
2022/06/25 03:18:26;;;;;;;;;;;;;;;;;;5118358;28;20342;-22
2022/06/25 03:20:52;;;;;;;;;;;;;;;;;;5118291;28;19969;-22
2022/06/25 03:23:19;;;;;;;;;;;;;;;;;;5118954;28;19911;-24
2022/06/25 03:25:45;;;;;;;;;;;;;;;;;;5118398;28;20292;-22
2022/06/25 03:28:11;;;;;;;;;;;;;;;;;;5118415;28;19916;-22
2022/06/25 03:30:37;;;;;;;;;;;;;;;;;;5118669;28;19918;-22
2022/06/25 03:33:03;;;;;;;;;;;;;;;;;;5118001;28;20342;-23
2022/06/25 03:35:29;;;;;;;;;;;;;;;;;;5118004;28;19919;-25
2022/06/25 03:37:55;;;;;;;;;;;;;;;;;;5118255;28;19908;-22
2022/06/25 03:40:21;;;;;;;;;;;;;;;;;;5117880;28;20223;-22
2022/06/25 03:42:48;;;;;;;;;;;;;;;;;;5117797;28;19912;-27
2022/06/25 03:45:14;;;;;;;;;;;;;;;;;;5117631;28;19934;-23
2022/06/25 03:47:40;;;;;;;;;;;;;;;;;;5117998;28;19926;-23
2022/06/25 03:50:06;;;;;;;;;;;;;;;;;;5117719;28;19907;-22
2022/06/25 03:52:32;;;;;;;;;;;;;;;;;;5117594;28;19922;-22
2022/06/25 03:54:58;;;;;;;;;;;;;;;;;;5117595;28;19908;-23
2022/06/25 03:57:24;;;;;;;;;;;;;;;;;;5117540;28;19912;-23
2022/06/25 03:59:50;;;;;;;;;;;;;;;;;;5117465;28;19911;-25
2022/06/25 04:02:16;;;;;;;;;;;;;;;;;;5118235;28;19912;-23
2022/06/25 04:04:42;;;;;;;;;;;;;;;;;;5117365;28;19912;-22
2022/06/25 04:07:09;;;;;;;;;;;;;;;;;;5117299;28;19923;-21
2022/06/25 04:09:35;;;;;;;;;;;;;;;;;;5117267;28;20231;-21
2022/06/25 04:12:01;;;;;;;;;;;;;;;;;;5117027;28;19919;-22
2022/06/25 04:14:27;;;;;;;;;;;;;;;;;;5117016;28;19912;-21
2022/06/25 04:16:55;;;;;;;;;;;;;;;;;;5117124;28;19912;-22
2022/06/25 04:19:21;;;;;;;;;;;;;;;;;;5117297;28;19943;-24
2022/06/25 04:21:49;;;;;;;;;;;;;;;;;;5117434;28;19961;-22
2022/06/25 04:24:15;;;;;;;;;;;;;;;;;;5117018;28;19943;-22
2022/06/25 04:26:41;;;;;;;;;;;;;;;;;;5116827;28;20361;-22
2022/06/25 04:29:08;;;;;;;;;;;;;;;;;;5117461;28;19916;-21
2022/06/25 04:31:34;;;;;;;;;;;;;;;;;;5117387;28;19908;-22
2022/06/25 04:34:00;;;;;;;;;;;;;;;;;;5116984;28;19912;-24
2022/06/25 04:36:26;;;;;;;;;;;;;;;;;;5116952;28;19915;-24
2022/06/25 04:38:53;;;;;;;;;;;;;;;;;;5116695;28;19970;-23
2022/06/25 04:41:19;;;;;;;;;;;;;;;;;;5116974;28;19912;-22
2022/06/25 04:43:45;;;;;;;;;;;;;;;;;;5116796;28;20010;-22
2022/06/25 04:46:11;;;;;;;;;;;;;;;;;;5116264;28;20045;-22
2022/06/25 04:48:37;;;;;;;;;;;;;;;;;;5116484;28;19919;-23
2022/06/25 04:51:03;;;;;;;;;;;;;;;;;;5115705;28;19916;-24
2022/06/25 04:53:29;;;;;;;;;;;;;;;;;;5116306;28;19915;-22
2022/06/25 04:55:55;;;;;;;;;;;;;;;;;;5116910;28;19965;-21
2022/06/25 04:58:21;;;;;;;;;;;;;;;;;;5116831;28;19937;-26
2022/06/25 05:00:47;;;;;;;;;;;;;;;;;;5116444;28;19985;-22
2022/06/25 05:03:13;;;;;;;;;;;;;;;;;;5116647;28;20434;-21
2022/06/25 05:05:39;;;;;;;;;;;;;;;;;;5116028;28;19938;-21
2022/06/25 05:08:05;;;;;;;;;;;;;;;;;;5116016;28;20350;-22
2022/06/25 05:10:31;;;;;;;;;;;;;;;;;;5116086;28;19923;-22
2022/06/25 05:13:12;;;;;;;;;;;;;;;;;;5115919;28;19923;-21
2022/06/25 05:15:39;;;;;;;;;;;;;;;;;;5116038;28;19918;-23
2022/06/25 05:18:05;;;;;;;;;;;;;;;;;;5116283;28;19992;-22
2022/06/25 05:20:31;;;;;;;;;;;;;;;;;;5115942;28;20345;-22
2022/06/25 05:22:57;;;;;;;;;;;;;;;;;;5115859;28;19932;-23
2022/06/25 05:25:23;;;;;;;;;;;;;;;;;;5116142;28;19984;-21
2022/06/25 05:27:49;;;;;;;;;;;;;;;;;;5116011;28;20375;-24
2022/06/25 05:30:15;;;;;;;;;;;;;;;;;;5116301;28;19908;-25
2022/06/25 05:32:41;;;;;;;;;;;;;;;;;;5116231;28;20280;-21
2022/06/25 05:35:08;;;;;;;;;;;;;;;;;;5115987;28;19912;-22
2022/06/25 05:40:19;;;;;;;;;;;;;;;;;;5115696;28;19915;-23
2022/06/25 05:42:45;;;;;;;;;;;;;;;;;;5115487;28;19920;-22
2022/06/25 05:45:10;;;;;;;;;;;;;;;;;;5115605;28;20283;-22
2022/06/25 05:47:36;;;;;;;;;;;;;;;;;;5115785;28;19966;-22
2022/06/25 05:50:02;;;;;;;;;;;;;;;;;;5115830;28;19911;-22
2022/06/25 05:52:28;;;;;;;;;;;;;;;;;;5115657;28;19923;-22
2022/06/25 05:54:54;;;;;;;;;;;;;;;;;;5115732;28;20242;-22
2022/06/25 05:57:20;;;;;;;;;;;;;;;;;;5115694;28;19915;-22
2022/06/25 05:59:46;;;;;;;;;;;;;;;;;;5115961;28;19998;-23
2022/06/25 06:02:12;;;;;;;;;;;;;;;;;;5116007;28;19966;-23
2022/06/25 06:04:38;;;;;;;;;;;;;;;;;;5119851;28;19908;-22
2022/06/25 06:07:04;;;;;;;;;;;;;;;;;;5118553;28;20011;-23
2022/06/25 06:09:32;;;;;;;;;;;;;;;;;;5119495;28;19915;-24
2022/06/25 06:11:58;;;;;;;;;;;;;;;;;;5120263;28;19976;-22
2022/06/25 06:14:24;;;;;;;;;;;;;;;;;;5120278;28;20322;-23
2022/06/25 06:16:50;;;;;;;;;;;;;;;;;;5119666;28;19915;-22
2022/06/25 06:19:16;;;;;;;;;;;;;;;;;;5119332;28;20353;-22
2022/06/25 06:21:42;;;;;;;;;;;;;;;;;;5119846;28;19919;-23
2022/06/25 06:24:08;;;;;;;;;;;;;;;;;;5119507;28;20270;-25
2022/06/25 06:26:34;;;;;;;;;;;;;;;;;;5119435;28;19916;-22
2022/06/25 06:29:00;;;;;;;;;;;;;;;;;;5119252;28;20320;-22
2022/06/25 06:31:26;;;;;;;;;;;;;;;;;;5119162;28;20380;-23
2022/06/25 06:33:52;;;;;;;;;;;;;;;;;;5119630;28;19920;-22
2022/06/25 06:36:18;;;;;;;;;;;;;;;;;;5119310;28;19916;-22
2022/06/25 06:38:44;;;;;;;;;;;;;;;;;;5119021;28;19918;-24
2022/06/25 06:41:09;;;;;;;;;;;;;;;;;;5119013;28;19955;-22
2022/06/25 06:43:36;;;;;;;;;;;;;;;;;;5118876;28;19918;-23
2022/06/25 06:46:02;;;;;;;;;;;;;;;;;;5118559;28;19930;-23
2022/06/25 06:48:28;;;;;;;;;;;;;;;;;;5118839;28;19912;-22
2022/06/25 06:50:54;;;;;;;;;;;;;;;;;;5118980;28;19908;-25
2022/06/25 06:53:21;;;;;;;;;;;;;;;;;;5118738;28;19940;-23
2022/06/25 06:55:47;;;;;;;;;;;;;;;;;;5118993;28;19921;-24
2022/06/25 06:58:13;;;;;;;;;;;;;;;;;;5119178;28;19912;-22
2022/06/25 07:00:39;;;;;;;;;;;;;;;;;;5118872;28;19914;-22
2022/06/25 07:03:04;;;;;;;;;;;;;;;;;;5118394;28;19918;-22
2022/06/25 07:05:30;;;;;;;;;;;;;;;;;;5118442;28;19934;-22
2022/06/25 07:07:56;;;;;;;;;;;;;;;;;;5118371;28;19916;-24
2022/06/25 07:10:22;;;;;;;;;;;;;;;;;;5118490;28;19988;-23
2022/06/25 07:12:48;;;;;;;;;;;;;;;;;;5118524;28;19916;-22
2022/06/25 07:15:14;;;;;;;;;;;;;;;;;;5117594;28;19912;-23
2022/06/25 07:17:40;;;;;;;;;;;;;;;;;;5118767;28;19918;-22
2022/06/25 07:20:06;;;;;;;;;;;;;;;;;;5118154;28;19935;-22
2022/06/25 07:22:32;;;;;;;;;;;;;;;;;;5118428;28;19912;-23
2022/06/25 07:24:58;;;;;;;;;;;;;;;;;;5118105;28;20398;-23
2022/06/25 07:27:24;;;;;;;;;;;;;;;;;;5116981;28;19911;-22
2022/06/25 07:29:50;;;;;;;;;;;;;;;;;;5118013;28;19919;-22
2022/06/25 07:32:16;;;;;;;;;;;;;;;;;;5117922;28;19912;-22
2022/06/25 07:34:42;;;;;;;;;;;;;;;;;;5117916;28;19911;-22
2022/06/25 07:37:08;;;;;;;;;;;;;;;;;;5117851;28;20303;-22
2022/06/25 07:39:34;;;;;;;;;;;;;;;;;;5118448;28;19971;-22
2022/06/25 07:42:00;;;;;;;;;;;;;;;;;;5118000;28;19968;-22
2022/06/25 07:44:26;;;;;;;;;;;;;;;;;;5116840;28;19926;-22
2022/06/25 07:46:52;;;;;;;;;;;;;;;;;;5117422;28;19928;-22
2022/06/25 07:49:18;;;;;;;;;;;;;;;;;;5117972;28;19969;-22
2022/06/25 07:51:56;;;;;;;;;;;;;;;;;;5117577;28;19922;-22
2022/06/25 07:54:22;;;;;;;;;;;;;;;;;;5117820;28;20281;-22
2022/06/25 07:56:48;;;;;;;;;;;;;;;;;;5117763;28;19912;-22
2022/06/25 07:59:14;;;;;;;;;;;;;;;;;;5117764;28;20281;-24
2022/06/25 08:01:40;;;;;;;;;;;;;;;;;;5117459;28;19920;-24
2022/06/25 08:04:06;;;;;;;;;;;;;;;;;;5117756;28;19940;-22
2022/06/25 08:06:34;;;;;;;;;;;;;;;;;;5117525;28;20001;-21
2022/06/25 08:09:00;;;;;;;;;;;;;;;;;;5117600;28;19908;-22
2022/06/25 08:11:26;;;;;;;;;;;;;;;;;;5117509;28;19911;-22
2022/06/25 08:13:52;;;;;;;;;;;;;;;;;;5117155;28;19908;-21
2022/06/25 08:16:18;;;;;;;;;;;;;;;;;;5117189;28;19912;-23
2022/06/25 08:18:44;;;;;;;;;;;;;;;;;;5117070;28;19976;-21
2022/06/25 08:21:10;;;;;;;;;;;;;;;;;;5117005;28;19912;-23
2022/06/25 08:23:36;;;;;;;;;;;;;;;;;;5117198;28;19930;-22
2022/06/25 08:26:02;;;;;;;;;;;;;;;;;;5116101;28;19911;-21
2022/06/25 08:28:28;;;;;;;;;;;;;;;;;;5116823;28;20012;-21
2022/06/25 08:30:54;;;;;;;;;;;;;;;;;;5116707;28;19912;-22
2022/06/25 08:33:20;;;;;;;;;;;;;;;;;;5117004;28;19977;-22
2022/06/25 08:35:46;;;;;;;;;;;;;;;;;;5116730;28;19912;-22
2022/06/25 08:38:12;;;;;;;;;;;;;;;;;;5116976;28;19909;-23
2022/06/25 08:40:38;;;;;;;;;;;;;;;;;;5116613;28;19935;-22
2022/06/25 08:43:04;;;;;;;;;;;;;;;;;;5115617;28;19907;-25
2022/06/25 08:45:30;;;;;;;;;;;;;;;;;;5116386;28;19951;-23
2022/06/25 08:47:56;;;;;;;;;;;;;;;;;;5116734;28;19998;-22
2022/06/25 08:50:22;;;;;;;;;;;;;;;;;;5116452;28;19912;-22
2022/06/25 08:52:48;;;;;;;;;;;;;;;;;;5116357;28;20284;-22
2022/06/25 08:55:14;;;;;;;;;;;;;;;;;;5117053;28;19960;-22
2022/06/25 08:57:41;;;;;;;;;;;;;;;;;;5116351;28;20258;-22
2022/06/25 09:00:07;;;;;;;;;;;;;;;;;;5116673;28;19911;-22
2022/06/25 09:02:34;;;;;;;;;;;;;;;;;;5116138;28;19939;-23
2022/06/25 09:05:00;;;;;;;;;;;;;;;;;;5116247;28;19914;-22
2022/06/25 09:07:26;;;;;;;;;;;;;;;;;;5116959;28;19915;-22
2022/06/25 09:09:52;;;;;;;;;;;;;;;;;;5116198;28;19919;-22
2022/06/25 09:12:18;;;;;;;;;;;;;;;;;;5116348;28;19976;-22
2022/06/25 09:14:44;;;;;;;;;;;;;;;;;;5116134;28;19912;-23
2022/06/25 09:17:12;;;;;;;;;;;;;;;;;;5115969;28;19912;-23
2022/06/25 09:19:38;;;;;;;;;;;;;;;;;;5116306;28;19918;-22
2022/06/25 09:22:04;;;;;;;;;;;;;;;;;;5116319;28;19915;-22
2022/06/25 09:24:30;;;;;;;;;;;;;;;;;;5115816;28;19972;-21
2022/06/25 09:26:56;;;;;;;;;;;;;;;;;;5115923;28;19931;-21
2022/06/25 09:29:22;;;;;;;;;;;;;;;;;;5115762;28;19908;-26
2022/06/25 09:31:48;;;;;;;;;;;;;;;;;;5116201;28;19964;-22
2022/06/25 09:34:14;;;;;;;;;;;;;;;;;;5115718;28;20262;-23
2022/06/25 09:36:41;;;;;;;;;;;;;;;;;;5115436;28;19907;-22
2022/06/25 09:39:07;;;;;;;;;;;;;;;;;;5115578;28;19919;-23
2022/06/25 09:41:33;;;;;;;;;;;;;;;;;;5116482;28;19912;-22
2022/06/25 09:43:59;;;;;;;;;;;;;;;;;;5115793;28;20247;-22
2022/06/25 09:46:25;;;;;;;;;;;;;;;;;;5115421;28;19920;-23
2022/06/25 09:48:53;;;;;;;;;;;;;;;;;;5115025;28;20250;-23
2022/06/25 09:51:28;;;;;;;;;;;;;;;;;;5116065;28;19972;-22
2022/06/25 09:53:54;;;;;;;;;;;;;;;;;;5115351;28;19908;-22
2022/06/25 09:56:21;;;;;;;;;;;;;;;;;;5115421;28;19969;-22
2022/06/25 09:58:47;;;;;;;;;;;;;;;;;;5115660;28;20274;-23
2022/06/25 10:01:15;;;;;;;;;;;;;;;;;;5115490;28;20308;-22
2022/06/25 10:03:41;;;;;;;;;;;;;;;;;;5115258;28;19919;-21
2022/06/25 10:06:07;;;;;;;;;;;;;;;;;;5115219;28;19955;-21
2022/06/25 10:08:33;;;;;;;;;;;;;;;;;;5115355;28;19915;-22
2022/06/25 10:10:59;;;;;;;;;;;;;;;;;;5115244;28;19912;-22
2022/06/25 10:13:25;;;;;;;;;;;;;;;;;;5115333;28;19908;-22
2022/06/25 10:15:52;;;;;;;;;;;;;;;;;;5115317;28;20030;-22
2022/06/25 10:18:18;;;;;;;;;;;;;;;;;;5115244;28;19980;-21
2022/06/25 10:20:44;;;;;;;;;;;;;;;;;;5115551;28;20407;-22
2022/06/25 10:23:10;;;;;;;;;;;;;;;;;;5115212;28;19950;-22
2022/06/25 10:25:36;;;;;;;;;;;;;;;;;;5115250;28;20008;-22
2022/06/25 10:28:02;;;;;;;;;;;;;;;;;;5115159;28;19929;-23
2022/06/25 10:30:28;;;;;;;;;;;;;;;;;;5115224;28;19920;-22
2022/06/25 10:32:54;;;;;;;;;;;;;;;;;;5115082;28;19912;-22
2022/06/25 10:35:20;;;;;;;;;;;;;;;;;;5115090;28;19914;-23
2022/06/25 10:37:46;;;;;;;;;;;;;;;;;;5115097;28;20010;-22
2022/06/25 10:40:12;;;;;;;;;;;;;;;;;;5115688;28;20003;-22
2022/06/25 10:45:23;;;;;;;;;;;;;;;;;;5114874;28;20426;-22
2022/06/25 10:47:49;;;;;;;;;;;;;;;;;;5115524;28;20002;-22
2022/06/25 10:50:15;;;;;;;;;;;;;;;;;;5117202;28;19908;-22
2022/06/25 10:52:41;;;;;;;;;;;;;;;;;;5118656;28;19979;-22
2022/06/25 10:55:07;;;;;;;;;;;;;;;;;;5118697;28;19912;-23
2022/06/25 10:57:33;;;;;;;;;;;;;;;;;;5118719;28;19920;-22
2022/06/25 10:59:59;;;;;;;;;;;;;;;;;;5119233;28;20304;-23
2022/06/25 11:02:27;;;;;;;;;;;;;;;;;;5118756;28;19916;-23
2022/06/25 11:04:54;;;;;;;;;;;;;;;;;;5118590;28;20016;-22
2022/06/25 11:07:20;;;;;;;;;;;;;;;;;;5118519;28;19920;-22
2022/06/25 11:09:46;;;;;;;;;;;;;;;;;;5118843;28;19915;-22
2022/06/25 11:12:12;;;;;;;;;;;;;;;;;;5118389;28;19938;-22
2022/06/25 11:14:38;;;;;;;;;;;;;;;;;;5118445;28;19908;-23
2022/06/25 11:17:04;;;;;;;;;;;;;;;;;;5118983;28;20327;-22
2022/06/25 11:19:30;;;;;;;;;;;;;;;;;;5118530;28;19959;-23
2022/06/25 11:21:56;;;;;;;;;;;;;;;;;;5118444;28;19941;-22
2022/06/25 11:24:22;;;;;;;;;;;;;;;;;;5118364;28;19977;-22
2022/06/25 11:29:32;;;;;;;;;;;;;;;;;;5118187;28;20254;-24
2022/06/25 11:31:58;;;;;;;;;;;;;;;;;;5117974;28;19908;-22
2022/06/25 11:34:25;;;;;;;;;;;;;;;;;;5118231;28;19923;-22
2022/06/25 11:36:50;;;;;;;;;;;;;;;;;;5118183;28;20203;-24
2022/06/25 11:39:16;;;;;;;;;;;;;;;;;;5118146;28;19915;-23
2022/06/25 11:41:42;;;;;;;;;;;;;;;;;;5117942;28;19908;-22
2022/06/25 11:44:08;;;;;;;;;;;;;;;;;;5118045;28;20263;-23
2022/06/25 11:46:34;;;;;;;;;;;;;;;;;;5117543;28;19919;-22
2022/06/25 11:49:00;;;;;;;;;;;;;;;;;;5117872;28;19911;-23
2022/06/25 11:51:26;;;;;;;;;;;;;;;;;;5117665;28;19930;-23
2022/06/25 11:53:52;;;;;;;;;;;;;;;;;;5117580;28;19912;-22
2022/06/25 11:56:18;;;;;;;;;;;;;;;;;;5117534;28;19911;-21
2022/06/25 11:58:44;;;;;;;;;;;;;;;;;;5117473;28;19911;-24
2022/06/25 12:01:10;;;;;;;;;;;;;;;;;;5117448;28;19908;-23
2022/06/25 12:03:36;;;;;;;;;;;;;;;;;;5117431;28;20254;-22
2022/06/25 12:06:02;;;;;;;;;;;;;;;;;;5117646;28;19908;-23
2022/06/25 12:08:28;;;;;;;;;;;;;;;;;;5117608;27;19972;-22
2022/06/25 12:10:55;;;;;;;;;;;;;;;;;;5117760;28;19915;-22
2022/06/25 12:13:21;;;;;;;;;;;;;;;;;;5117857;28;19933;-22
2022/06/25 12:15:47;;;;;;;;;;;;;;;;;;5116195;28;20266;-22
2022/06/25 12:18:13;;;;;;;;;;;;;;;;;;5117168;28;20381;-23
2022/06/25 12:20:39;;;;;;;;;;;;;;;;;;5117348;28;19951;-22
2022/06/25 12:23:05;;;;;;;;;;;;;;;;;;5116972;28;20003;-22
2022/06/25 12:25:31;;;;;;;;;;;;;;;;;;5117799;28;19916;-22
2022/06/25 12:27:57;;;;;;;;;;;;;;;;;;5116924;28;20298;-22
2022/06/25 12:30:23;;;;;;;;;;;;;;;;;;5117236;28;20006;-22
2022/06/25 12:32:49;;;;;;;;;;;;;;;;;;5116826;28;19912;-25
2022/06/25 12:35:15;;;;;;;;;;;;;;;;;;5117105;28;19957;-22
2022/06/25 12:37:41;;;;;;;;;;;;;;;;;;5115836;28;20316;-22
2022/06/25 12:40:07;;;;;;;;;;;;;;;;;;5117005;28;19912;-22
2022/06/25 12:42:33;;;;;;;;;;;;;;;;;;5116568;28;19916;-22
2022/06/25 12:44:59;;;;;;;;;;;;;;;;;;5116461;28;19968;-25
2022/06/25 12:47:25;;;;;;;;;;;;;;;;;;5116761;28;19916;-22
2022/06/25 12:49:51;;;;;;;;;;;;;;;;;;5116461;28;19916;-22
2022/06/25 12:52:19;;;;;;;;;;;;;;;;;;5116650;28;19919;-22
2022/06/25 12:54:45;;;;;;;;;;;;;;;;;;5116330;28;19922;-24
2022/06/25 12:57:11;;;;;;;;;;;;;;;;;;5116359;28;20358;-22
2022/06/25 12:59:37;;;;;;;;;;;;;;;;;;5116886;28;19925;-22
2022/06/25 13:02:03;;;;;;;;;;;;;;;;;;5116167;28;19977;-23
2022/06/25 13:04:29;;;;;;;;;;;;;;;;;;5116272;28;19912;-23
2022/06/25 13:06:55;;;;;;;;;;;;;;;;;;5116124;28;20006;-23
2022/06/25 13:09:21;;;;;;;;;;;;;;;;;;5116403;28;19958;-23
2022/06/25 13:11:47;;;;;;;;;;;;;;;;;;5115449;28;19922;-23
2022/06/25 13:14:13;;;;;;;;;;;;;;;;;;5116343;28;19908;-23
2022/06/25 13:16:39;;;;;;;;;;;;;;;;;;5116301;28;20002;-22
2022/06/25 13:19:05;;;;;;;;;;;;;;;;;;5116567;28;20390;-22
2022/06/25 13:21:31;;;;;;;;;;;;;;;;;;5116140;28;20264;-22
2022/06/25 13:23:57;;;;;;;;;;;;;;;;;;5116089;28;19908;-22
2022/06/25 13:26:23;;;;;;;;;;;;;;;;;;5115820;28;19916;-22
2022/06/25 13:28:49;;;;;;;;;;;;;;;;;;5116132;28;19935;-22
2022/06/25 13:31:15;;;;;;;;;;;;;;;;;;5115767;28;19912;-22
2022/06/25 13:33:42;;;;;;;;;;;;;;;;;;5115618;28;19922;-22
2022/06/25 13:36:08;;;;;;;;;;;;;;;;;;5116157;28;20345;-22
2022/06/25 13:38:36;;;;;;;;;;;;;;;;;;5116241;28;19916;-22
2022/06/25 13:41:02;;;;;;;;;;;;;;;;;;5115606;28;19941;-22
2022/06/25 13:43:28;;;;;;;;;;;;;;;;;;5115648;28;19912;-22
2022/06/25 13:45:54;;;;;;;;;;;;;;;;;;5115277;28;20014;-22
2022/06/25 13:48:20;;;;;;;;;;;;;;;;;;5115433;28;20339;-22
2022/06/25 13:50:46;;;;;;;;;;;;;;;;;;5115561;28;20003;-22
2022/06/25 13:53:12;;;;;;;;;;;;;;;;;;5115431;28;19916;-22
2022/06/25 13:55:38;;;;;;;;;;;;;;;;;;5115819;28;19908;-22
2022/06/25 13:58:04;;;;;;;;;;;;;;;;;;5115801;28;20243;-24
2022/06/25 14:00:30;;;;;;;;;;;;;;;;;;5115832;28;19912;-22
2022/06/25 14:02:56;;;;;;;;;;;;;;;;;;5115459;28;20308;-23
2022/06/25 14:05:22;;;;;;;;;;;;;;;;;;5115414;28;19974;-22
2022/06/25 14:07:48;;;;;;;;;;;;;;;;;;5115976;28;19915;-23
2022/06/25 14:10:16;;;;;;;;;;;;;;;;;;5115391;28;19999;-22
2022/06/25 14:12:42;;;;;;;;;;;;;;;;;;5115554;28;19915;-22
2022/06/25 14:15:08;;;;;;;;;;;;;;;;;;5115439;28;19907;-22
2022/06/25 14:17:34;;;;;;;;;;;;;;;;;;5115644;28;20002;-22
2022/06/25 14:20:02;;;;;;;;;;;;;;;;;;5114391;28;19914;-24
2022/06/25 14:22:28;;;;;;;;;;;;;;;;;;5115245;28;19969;-24
2022/06/25 14:27:39;;;;;;;;;;;;;;;;;;5119336;28;20253;-22
2022/06/25 14:30:05;;;;;;;;;;;;;;;;;;5119302;28;19987;-23
2022/06/25 14:32:31;;;;;;;;;;;;;;;;;;5119374;28;20014;-22
2022/06/25 14:34:57;;;;;;;;;;;;;;;;;;5119175;28;19933;-22
2022/06/25 14:42:52;;;;;;;;;;;;;;;;;;5119059;28;19964;-23
2022/06/25 14:45:18;;;;;;;;;;;;;;;;;;5118823;28;19977;-23
2022/06/25 14:47:44;;;;;;;;;;;;;;;;;;5118925;28;19923;-22
2022/06/25 14:50:10;;;;;;;;;;;;;;;;;;5118972;28;20335;-22
2022/06/25 14:52:36;;;;;;;;;;;;;;;;;;5118703;28;19915;-22
2022/06/25 14:55:03;;;;;;;;;;;;;;;;;;5119126;28;19912;-23
2022/06/25 14:57:29;;;;;;;;;;;;;;;;;;5118744;28;19912;-23
2022/06/25 14:59:55;;;;;;;;;;;;;;;;;;5118755;28;19915;-22
2022/06/25 15:02:21;;;;;;;;;;;;;;;;;;5118569;28;20411;-23
2022/06/25 15:04:47;;;;;;;;;;;;;;;;;;5119185;28;19915;-23
2022/06/25 15:07:13;;;;;;;;;;;;;;;;;;5118894;28;20250;-23
2022/06/25 15:09:39;;;;;;;;;;;;;;;;;;5119028;28;19920;-23
2022/06/25 15:12:05;;;;;;;;;;;;;;;;;;5118675;28;19908;-23
2022/06/25 15:14:31;;;;;;;;;;;;;;;;;;5118696;28;20254;-22
2022/06/25 15:16:57;;;;;;;;;;;;;;;;;;5118918;28;19919;-23
2022/06/25 15:19:23;;;;;;;;;;;;;;;;;;5118654;28;19911;-23
2022/06/25 15:21:49;;;;;;;;;;;;;;;;;;5118995;28;19911;-22
2022/06/25 15:24:15;;;;;;;;;;;;;;;;;;5118168;28;20335;-22
2022/06/25 15:26:41;;;;;;;;;;;;;;;;;;5118042;28;19919;-23
2022/06/25 15:29:07;;;;;;;;;;;;;;;;;;5118392;28;19958;-22
2022/06/25 15:31:33;;;;;;;;;;;;;;;;;;5118308;28;19911;-24
2022/06/25 15:33:59;;;;;;;;;;;;;;;;;;5118000;28;20228;-22
2022/06/25 15:36:25;;;;;;;;;;;;;;;;;;5117389;28;19911;-22
2022/06/25 15:38:51;;;;;;;;;;;;;;;;;;5118210;28;19969;-22
2022/06/25 15:41:17;;;;;;;;;;;;;;;;;;5117928;28;20002;-23
2022/06/25 15:43:43;;;;;;;;;;;;;;;;;;5118020;28;19912;-23
2022/06/25 15:46:09;;;;;;;;;;;;;;;;;;5117985;28;20250;-22
2022/06/25 15:48:35;;;;;;;;;;;;;;;;;;5118028;28;20330;-23
2022/06/25 15:51:01;;;;;;;;;;;;;;;;;;5117811;28;19977;-22
2022/06/25 15:53:27;;;;;;;;;;;;;;;;;;5117895;28;19938;-23
2022/06/25 15:55:53;;;;;;;;;;;;;;;;;;5117599;28;19964;-23
2022/06/25 15:58:19;;;;;;;;;;;;;;;;;;5117865;28;19919;-23
2022/06/25 16:00:45;;;;;;;;;;;;;;;;;;5118185;28;20322;-24
2022/06/25 16:03:11;;;;;;;;;;;;;;;;;;5117484;28;20223;-23
2022/06/25 16:05:37;;;;;;;;;;;;;;;;;;5117498;28;19969;-24
2022/06/25 16:08:03;;;;;;;;;;;;;;;;;;5117334;28;20402;-22
2022/06/25 16:10:29;;;;;;;;;;;;;;;;;;5117441;28;19907;-23
2022/06/25 16:12:55;;;;;;;;;;;;;;;;;;5117633;28;20254;-23
2022/06/25 16:15:22;;;;;;;;;;;;;;;;;;5118072;28;19950;-23
2022/06/25 16:17:48;;;;;;;;;;;;;;;;;;5117493;28;20025;-23
2022/06/25 16:20:14;;;;;;;;;;;;;;;;;;5117210;28;20247;-23
2022/06/25 16:22:40;;;;;;;;;;;;;;;;;;5117250;28;19915;-23
2022/06/25 16:25:06;;;;;;;;;;;;;;;;;;5116991;28;19958;-23
2022/06/25 16:27:32;;;;;;;;;;;;;;;;;;5116946;28;19916;-23
2022/06/25 16:29:58;;;;;;;;;;;;;;;;;;5117273;28;19911;-23
2022/06/25 16:32:24;;;;;;;;;;;;;;;;;;5117275;28;19951;-22
2022/06/25 16:34:50;;;;;;;;;;;;;;;;;;5117470;28;19953;-23
2022/06/25 16:37:16;;;;;;;;;;;;;;;;;;5116866;28;19911;-25
2022/06/25 16:39:42;;;;;;;;;;;;;;;;;;5117365;28;19918;-23
2022/06/25 16:42:08;;;;;;;;;;;;;;;;;;5116926;28;19923;-23
2022/06/25 16:44:34;;;;;;;;;;;;;;;;;;5116653;28;19908;-22
2022/06/25 16:47:00;;;;;;;;;;;;;;;;;;5115527;28;19959;-23
2022/06/25 16:49:26;;;;;;;;;;;;;;;;;;5116652;28;19914;-22
2022/06/25 16:51:52;;;;;;;;;;;;;;;;;;5116763;28;19912;-22
2022/06/25 16:54:18;;;;;;;;;;;;;;;;;;5116803;28;20362;-22
2022/06/25 16:56:44;;;;;;;;;;;;;;;;;;5117055;28;19919;-25